createdAt,value
2018-04-30T00:00:01.115Z,99098.95
2018-04-30T00:02:28.648Z,99090.61
2018-04-30T00:04:56.148Z,99092.52
2018-04-30T00:07:23.618Z,99089.13
2018-04-30T00:09:51.126Z,99082.03
2018-04-30T00:12:18.618Z,99078.11
2018-04-30T00:14:46.168Z,99064.80
2018-04-30T00:17:13.667Z,99061.31
2018-04-30T00:19:41.171Z,99052.70
2018-04-30T00:22:08.654Z,99048.65
2018-04-30T00:24:36.133Z,99040.08
2018-04-30T00:27:03.635Z,99036.27
2018-04-30T00:29:31.128Z,99020.92
2018-04-30T00:31:58.627Z,99021.81
2018-04-30T00:34:26.198Z,99015.50
2018-04-30T00:36:53.680Z,99010.58
2018-04-30T00:39:21.144Z,99002.30
2018-04-30T00:41:48.628Z,98998.01
2018-04-30T00:44:16.092Z,98982.44
2018-04-30T00:46:43.683Z,98981.68
2018-04-30T00:49:11.189Z,98976.12
2018-04-30T00:51:38.663Z,98972.37
2018-04-30T00:54:06.155Z,98963.99
2018-04-30T00:56:33.650Z,98956.13
2018-04-30T00:59:01.144Z,98945.54
2018-04-30T01:01:28.613Z,98938.04
2018-04-30T01:03:56.118Z,98931.81
2018-04-30T01:06:23.596Z,98927.21
2018-04-30T01:08:51.069Z,98917.03
2018-04-30T01:11:18.564Z,98909.91
2018-04-30T01:13:46.049Z,98908.20
2018-04-30T01:16:13.527Z,98900.38
2018-04-30T01:21:38.992Z,98888.34
2018-04-30T01:24:06.523Z,98890.94
2018-04-30T01:26:34.017Z,98878.33
2018-04-30T01:29:01.516Z,98877.45
2018-04-30T01:31:29.019Z,98873.23
2018-04-30T01:33:56.491Z,98873.49
2018-04-30T01:36:23.965Z,98868.66
2018-04-30T01:38:51.467Z,98865.59
2018-04-30T01:41:18.951Z,98869.71
2018-04-30T01:43:46.460Z,98857.80
2018-04-30T01:46:13.985Z,98844.46
2018-04-30T01:48:41.464Z,98840.08
2018-04-30T01:51:08.959Z,98842.33
2018-04-30T01:53:36.446Z,98832.86
2018-04-30T01:56:03.958Z,98828.16
2018-04-30T01:58:31.443Z,98824.21
2018-04-30T02:00:58.917Z,98820.91
2018-04-30T02:03:26.405Z,98815.56
2018-04-30T02:05:53.921Z,98822.38
2018-04-30T02:08:21.409Z,98817.73
2018-04-30T02:10:48.916Z,98813.45
2018-04-30T02:13:16.433Z,98807.13
2018-04-30T02:15:43.970Z,98797.83
2018-04-30T02:18:11.440Z,98797.31
2018-04-30T02:20:38.936Z,98803.56
2018-04-30T02:23:06.409Z,98791.34
2018-04-30T02:25:33.890Z,98794.75
2018-04-30T02:28:01.361Z,98782.67
2018-04-30T02:30:28.869Z,98780.97
2018-04-30T02:32:56.358Z,98784.86
2018-04-30T02:35:23.837Z,98778.33
2018-04-30T02:37:51.334Z,98763.78
2018-04-30T02:40:18.811Z,98765.98
2018-04-30T02:42:46.285Z,98746.55
2018-04-30T02:45:13.773Z,98747.64
2018-04-30T02:47:41.256Z,98733.38
2018-04-30T02:50:08.760Z,98737.69
2018-04-30T02:52:36.259Z,98723.79
2018-04-30T02:55:03.816Z,98719.20
2018-04-30T02:57:31.288Z,98712.30
2018-04-30T02:59:58.811Z,98708.27
2018-04-30T03:02:26.307Z,98705.61
2018-04-30T03:04:53.788Z,98704.31
2018-04-30T03:07:21.268Z,98702.84
2018-04-30T03:09:48.789Z,98702.81
2018-04-30T03:12:16.513Z,98698.27
2018-04-30T03:14:44.035Z,98693.61
2018-04-30T03:17:11.577Z,98689.80
2018-04-30T03:19:39.091Z,98691.94
2018-04-30T03:22:06.576Z,98688.20
2018-04-30T03:24:34.067Z,98685.82
2018-04-30T03:27:01.588Z,98682.33
2018-04-30T03:29:29.087Z,98678.58
2018-04-30T03:31:56.573Z,98670.62
2018-04-30T03:34:24.057Z,98671.67
2018-04-30T03:36:51.556Z,98654.92
2018-04-30T03:39:19.054Z,98658.80
2018-04-30T03:41:46.582Z,98657.08
2018-04-30T03:44:14.065Z,98659.28
2018-04-30T03:46:41.567Z,98641.84
2018-04-30T03:49:09.283Z,98655.94
2018-04-30T03:51:36.844Z,98656.81
2018-04-30T03:54:04.335Z,98671.98
2018-04-30T03:56:31.808Z,98693.55
2018-04-30T03:58:59.314Z,98739.86
2018-04-30T04:01:38.559Z,98749.52
2018-04-30T04:04:17.854Z,98741.36
2018-04-30T04:06:54.214Z,98732.89
2018-04-30T04:09:21.713Z,98721.73
2018-04-30T04:11:49.221Z,98703.06
2018-04-30T04:14:16.715Z,98697.41
2018-04-30T04:16:44.236Z,98706.01
2018-04-30T04:19:11.728Z,98699.19
2018-04-30T04:21:39.227Z,98699.16
2018-04-30T04:24:06.723Z,98699.88
2018-04-30T04:26:34.238Z,98701.75
2018-04-30T04:29:01.739Z,98707.34
2018-04-30T04:31:29.225Z,98699.98
2018-04-30T04:33:56.719Z,98707.81
2018-04-30T04:36:24.212Z,98697.59
2018-04-30T04:38:51.748Z,98691.11
2018-04-30T04:41:19.268Z,98693.72
2018-04-30T04:43:46.784Z,98693.56
2018-04-30T04:46:14.286Z,98685.16
2018-04-30T04:48:41.794Z,98684.91
2018-04-30T04:51:09.390Z,98678.05
2018-04-30T04:53:37.675Z,98684.91
2018-04-30T04:56:05.293Z,98683.25
2018-04-30T04:58:33.033Z,98693.06
2018-04-30T05:01:00.646Z,98689.85
2018-04-30T05:03:28.152Z,98674.52
2018-04-30T05:05:55.637Z,98674.17
2018-04-30T05:08:23.297Z,98668.21
2018-04-30T05:10:50.914Z,98668.50
2018-04-30T05:13:18.343Z,98678.72
2018-04-30T05:15:45.975Z,98681.72
2018-04-30T05:18:13.473Z,98664.87
2018-04-30T05:20:40.989Z,98666.45
2018-04-30T05:23:10.250Z,98671.84
2018-04-30T05:25:37.930Z,98670.29
2018-04-30T05:28:05.443Z,98672.95
2018-04-30T05:30:33.027Z,98677.60
2018-04-30T05:33:00.600Z,98674.72
2018-04-30T05:35:29.189Z,98682.70
2018-04-30T05:37:56.728Z,98692.00
2018-04-30T05:40:24.317Z,98684.38
2018-04-30T05:42:51.810Z,98684.85
2018-04-30T05:45:19.312Z,98679.48
2018-04-30T05:47:46.909Z,98681.75
2018-04-30T05:50:14.451Z,98681.98
2018-04-30T05:52:41.939Z,98685.80
2018-04-30T05:55:09.461Z,98679.69
2018-04-30T05:57:40.684Z,98686.01
2018-04-30T06:00:08.190Z,98681.05
2018-04-30T06:02:35.758Z,98686.41
2018-04-30T06:05:03.260Z,98683.30
2018-04-30T06:07:30.780Z,98685.39
2018-04-30T06:09:59.236Z,98693.14
2018-04-30T06:12:26.736Z,98690.76
2018-04-30T06:14:57.742Z,98701.95
2018-04-30T06:17:25.294Z,98712.30
2018-04-30T06:19:52.775Z,98713.14
2018-04-30T06:22:20.284Z,98708.77
2018-04-30T06:24:47.790Z,98719.56
2018-04-30T06:27:15.276Z,98717.89
2018-04-30T06:29:42.758Z,98703.31
2018-04-30T06:32:10.263Z,98704.00
2018-04-30T06:34:37.818Z,98697.34
2018-04-30T06:37:05.295Z,98697.78
2018-04-30T06:39:32.795Z,98700.65
2018-04-30T06:42:00.319Z,98692.66
2018-04-30T06:44:27.792Z,98695.10
2018-04-30T06:46:55.327Z,98704.66
2018-04-30T06:49:22.807Z,98703.83
2018-04-30T06:51:50.309Z,98698.64
2018-04-30T06:54:17.785Z,98704.83
2018-04-30T06:56:45.280Z,98706.91
2018-04-30T06:59:12.767Z,98711.36
2018-04-30T07:01:40.331Z,98714.17
2018-04-30T07:04:07.824Z,98712.84
2018-04-30T07:06:35.318Z,98710.88
2018-04-30T07:09:02.901Z,98716.65
2018-04-30T07:11:30.306Z,98728.37
2018-04-30T07:13:57.809Z,98724.84
2018-04-30T07:16:25.305Z,98730.34
2018-04-30T07:18:52.803Z,98736.92
2018-04-30T07:21:20.370Z,98752.00
2018-04-30T07:23:47.845Z,98761.70
2018-04-30T07:26:15.331Z,98761.16
2018-04-30T07:28:42.849Z,98777.48
2018-04-30T07:31:10.362Z,98773.13
2018-04-30T07:33:37.847Z,98776.95
2018-04-30T07:36:05.321Z,98769.30
2018-04-30T07:38:32.799Z,98773.23
2018-04-30T07:41:00.290Z,98779.78
2018-04-30T07:43:27.879Z,98780.84
2018-04-30T07:45:55.412Z,98777.31
2018-04-30T07:48:22.928Z,98777.95
2018-04-30T07:50:50.395Z,98782.20
2018-04-30T07:53:17.975Z,98781.28
2018-04-30T07:55:45.548Z,98792.55
2018-04-30T07:58:13.157Z,98780.17
2018-04-30T08:00:40.675Z,98788.41
2018-04-30T08:03:08.206Z,98782.03
2018-04-30T08:05:35.675Z,98785.22
2018-04-30T08:08:03.168Z,98794.19
2018-04-30T08:10:30.649Z,98792.33
2018-04-30T08:12:58.143Z,98806.08
2018-04-30T08:15:25.664Z,98818.90
2018-04-30T08:17:53.164Z,98825.30
2018-04-30T08:20:20.660Z,98836.92
2018-04-30T08:22:48.311Z,98837.03
2018-04-30T08:25:15.822Z,98842.77
2018-04-30T08:27:43.349Z,98847.29
2018-04-30T08:30:10.839Z,98847.90
2018-04-30T08:32:38.349Z,98853.89
2018-04-30T08:35:05.834Z,98869.87
2018-04-30T08:37:33.332Z,98884.12
2018-04-30T08:40:00.809Z,98896.40
2018-04-30T08:42:28.287Z,98903.61
2018-04-30T08:44:55.796Z,98919.15
2018-04-30T08:47:23.284Z,98927.40
2018-04-30T08:49:50.807Z,98936.64
2018-04-30T08:52:18.287Z,98940.30
2018-04-30T08:54:45.803Z,98947.08
2018-04-30T08:57:13.372Z,98929.80
2018-04-30T08:59:40.862Z,98935.19
2018-04-30T09:02:08.357Z,98941.35
2018-04-30T09:04:35.854Z,98936.85
2018-04-30T09:07:03.357Z,98940.73
2018-04-30T09:09:31.665Z,98948.69
2018-04-30T09:11:59.159Z,98954.27
2018-04-30T09:14:26.620Z,98964.75
2018-04-30T09:16:54.091Z,98975.50
2018-04-30T09:19:21.565Z,98974.23
2018-04-30T09:21:49.169Z,98979.89
2018-04-30T09:24:16.637Z,98988.08
2018-04-30T09:26:44.116Z,98984.11
2018-04-30T09:29:11.673Z,98990.70
2018-04-30T09:31:39.132Z,98984.81
2018-04-30T09:34:06.612Z,98989.69
2018-04-30T09:36:34.094Z,99003.84
2018-04-30T09:39:01.579Z,99014.78
2018-04-30T09:41:29.073Z,99013.09
2018-04-30T09:43:56.561Z,99021.23
2018-04-30T09:46:24.037Z,99012.55
2018-04-30T09:48:51.555Z,99016.34
2018-04-30T09:51:19.068Z,99022.24
2018-04-30T09:53:46.556Z,99026.94
2018-04-30T09:56:14.028Z,99031.64
2018-04-30T09:58:41.513Z,99040.13
2018-04-30T10:01:08.996Z,99051.91
2018-04-30T10:03:36.481Z,99044.64
2018-04-30T10:06:04.308Z,99049.16
2018-04-30T10:08:31.777Z,99053.93
2018-04-30T10:10:59.340Z,99051.09
2018-04-30T10:13:26.822Z,99048.29
2018-04-30T10:15:54.346Z,99044.16
2018-04-30T10:18:21.839Z,99056.78
2018-04-30T10:20:49.324Z,99043.75
2018-04-30T10:23:16.822Z,99054.73
2018-04-30T10:25:44.292Z,99057.22
2018-04-30T10:28:11.790Z,99063.11
2018-04-30T10:30:39.297Z,99066.11
2018-04-30T10:33:06.755Z,99059.08
2018-04-30T10:35:34.228Z,99045.20
2018-04-30T10:38:01.753Z,99044.48
2018-04-30T10:40:29.251Z,99052.87
2018-04-30T10:42:56.773Z,99053.91
2018-04-30T10:45:24.295Z,99055.96
2018-04-30T10:47:51.790Z,99051.73
2018-04-30T10:50:19.380Z,99053.69
2018-04-30T10:52:46.860Z,99048.30
2018-04-30T10:55:15.356Z,99051.82
2018-04-30T10:57:42.851Z,99051.89
2018-04-30T11:00:10.333Z,99062.64
2018-04-30T11:02:37.837Z,99072.52
2018-04-30T11:05:05.306Z,99076.55
2018-04-30T11:07:32.779Z,99074.46
2018-04-30T11:10:00.267Z,99077.74
2018-04-30T11:12:27.868Z,99100.27
2018-04-30T11:14:55.327Z,99107.78
2018-04-30T11:17:22.820Z,99125.91
2018-04-30T11:19:50.298Z,99137.76
2018-04-30T11:22:17.779Z,99147.34
2018-04-30T11:24:45.280Z,99133.25
2018-04-30T11:27:12.791Z,99152.03
2018-04-30T11:29:40.268Z,99151.62
2018-04-30T11:32:07.771Z,99159.72
2018-04-30T11:34:35.417Z,99153.88
2018-04-30T11:37:02.936Z,99153.63
2018-04-30T11:39:30.428Z,99153.77
2018-04-30T11:41:58.119Z,99144.43
2018-04-30T11:44:25.669Z,99143.48
2018-04-30T11:46:53.221Z,99145.08
2018-04-30T11:49:20.703Z,99141.81
2018-04-30T11:51:48.232Z,99129.00
2018-04-30T11:54:15.749Z,99128.42
2018-04-30T11:56:43.287Z,99150.83
2018-04-30T11:59:10.800Z,99157.17
2018-04-30T12:01:38.296Z,99164.61
2018-04-30T12:04:05.787Z,99170.38
2018-04-30T12:06:33.267Z,99173.83
2018-04-30T12:09:00.793Z,99180.52
2018-04-30T12:11:28.299Z,99182.09
2018-04-30T12:13:55.811Z,99185.53
2018-04-30T12:16:23.308Z,99182.33
2018-04-30T12:18:50.812Z,99192.10
2018-04-30T12:21:18.308Z,99194.84
2018-04-30T12:23:45.811Z,99197.66
2018-04-30T12:26:13.322Z,99196.00
2018-04-30T12:28:44.440Z,99204.33
2018-04-30T12:31:11.912Z,99207.58
2018-04-30T12:33:39.454Z,99217.29
2018-04-30T12:36:06.950Z,99229.92
2018-04-30T12:38:34.395Z,99220.34
2018-04-30T12:41:01.907Z,99225.14
2018-04-30T12:43:29.624Z,99227.97
2018-04-30T12:45:57.348Z,99223.61
2018-04-30T12:48:24.813Z,99230.64
2018-04-30T12:50:52.600Z,99231.28
2018-04-30T12:53:20.053Z,99235.09
2018-04-30T12:55:47.540Z,99239.05
2018-04-30T12:58:15.030Z,99231.98
2018-04-30T13:00:42.523Z,99237.42
2018-04-30T13:03:10.024Z,99229.27
2018-04-30T13:05:37.510Z,99230.36
2018-04-30T13:08:04.988Z,99233.19
2018-04-30T13:10:32.539Z,99239.36
2018-04-30T13:13:00.355Z,99244.13
2018-04-30T13:15:27.893Z,99247.69
2018-04-30T13:17:55.372Z,99255.01
2018-04-30T13:20:22.861Z,99255.72
2018-04-30T13:22:50.327Z,99250.95
2018-04-30T13:25:17.834Z,99259.72
2018-04-30T13:27:45.320Z,99260.45
2018-04-30T13:30:12.822Z,99259.92
2018-04-30T13:32:40.304Z,99256.09
2018-04-30T13:35:08.010Z,99243.70
2018-04-30T13:37:35.506Z,99248.00
2018-04-30T13:40:03.245Z,99240.94
2018-04-30T13:42:30.736Z,99247.77
2018-04-30T13:44:58.457Z,99244.23
2018-04-30T13:47:25.928Z,99239.09
2018-04-30T13:49:53.418Z,99242.00
2018-04-30T13:52:20.919Z,99243.06
2018-04-30T13:54:48.407Z,99241.55
2018-04-30T13:57:15.884Z,99248.88
2018-04-30T13:59:43.374Z,99251.05
2018-04-30T14:02:10.868Z,99253.75
2018-04-30T14:04:38.544Z,99250.25
2018-04-30T14:07:06.059Z,99249.86
2018-04-30T14:09:33.567Z,99256.05
2018-04-30T14:12:01.040Z,99250.50
2018-04-30T14:14:28.513Z,99239.56
2018-04-30T14:16:56.018Z,99241.39
2018-04-30T14:19:24.111Z,99248.00
2018-04-30T14:21:51.657Z,99247.34
2018-04-30T14:24:20.110Z,99252.89
2018-04-30T14:26:47.726Z,99247.59
2018-04-30T14:29:15.197Z,99251.54
2018-04-30T14:31:42.986Z,99255.42
2018-04-30T14:34:10.482Z,99247.97
2018-04-30T14:36:38.158Z,99257.77
2018-04-30T14:39:05.772Z,99252.58
2018-04-30T14:41:33.257Z,99252.26
2018-04-30T14:44:00.766Z,99246.66
2018-04-30T14:46:28.327Z,99251.42
2018-04-30T14:48:55.844Z,99249.00
2018-04-30T14:51:23.366Z,99244.61
2018-04-30T14:53:50.854Z,99244.78
2018-04-30T14:56:18.739Z,99246.36
2018-04-30T14:58:46.551Z,99237.07
2018-04-30T15:01:14.078Z,99238.98
2018-04-30T15:03:41.701Z,99244.55
2018-04-30T15:06:09.934Z,99242.67
2018-04-30T15:08:37.608Z,99241.53
2018-04-30T15:11:05.137Z,99240.56
2018-04-30T15:13:32.689Z,99253.70
2018-04-30T15:16:00.179Z,99249.19
2018-04-30T15:18:27.699Z,99231.62
2018-04-30T15:20:55.188Z,99252.88
2018-04-30T15:23:22.713Z,99251.22
2018-04-30T15:25:50.484Z,99238.80
2018-04-30T15:28:18.028Z,99238.81
2018-04-30T15:30:45.515Z,99235.02
2018-04-30T15:33:13.106Z,99228.11
2018-04-30T15:35:40.703Z,99232.87
2018-04-30T15:38:08.376Z,99237.77
2018-04-30T15:40:35.853Z,99237.74
2018-04-30T15:43:03.422Z,99236.30
2018-04-30T15:45:31.057Z,99227.00
2018-04-30T15:47:58.652Z,99219.59
2018-04-30T15:50:26.202Z,99219.78
2018-04-30T15:52:53.874Z,99222.69
2018-04-30T15:55:21.375Z,99228.95
2018-04-30T15:57:48.884Z,99228.18
2018-04-30T16:00:16.391Z,99236.69
2018-04-30T16:02:43.872Z,99239.37
2018-04-30T16:05:11.404Z,99230.87
2018-04-30T16:07:38.896Z,99223.89
2018-04-30T16:10:06.391Z,99231.08
2018-04-30T16:12:34.021Z,99229.63
2018-04-30T16:15:01.601Z,99235.59
2018-04-30T16:17:29.119Z,99232.81
2018-04-30T16:19:57.184Z,99224.16
2018-04-30T16:22:24.679Z,99237.53
2018-04-30T16:24:52.221Z,99240.27
2018-04-30T16:27:19.828Z,99242.23
2018-04-30T16:29:47.388Z,99240.09
2018-04-30T16:32:14.924Z,99239.71
2018-04-30T16:34:42.451Z,99248.47
2018-04-30T16:37:10.072Z,99237.53
2018-04-30T16:39:37.616Z,99237.55
2018-04-30T16:42:05.115Z,99244.17
2018-04-30T16:44:32.615Z,99241.69
2018-04-30T16:47:00.104Z,99249.11
2018-04-30T16:49:27.606Z,99246.13
2018-04-30T16:51:55.091Z,99246.83
2018-04-30T16:54:22.600Z,99243.11
2018-04-30T16:56:50.105Z,99241.12
2018-04-30T16:59:17.609Z,99249.02
2018-04-30T17:01:45.147Z,99239.25
2018-04-30T17:04:12.659Z,99246.14
2018-04-30T17:06:40.114Z,99249.05
2018-04-30T17:09:07.598Z,99246.45
2018-04-30T17:11:35.254Z,99248.31
2018-04-30T17:14:02.920Z,99246.45
2018-04-30T17:16:30.951Z,99259.36
2018-04-30T17:18:58.437Z,99249.81
2018-04-30T17:21:25.986Z,99256.05
2018-04-30T17:23:54.286Z,99251.30
2018-04-30T17:26:21.798Z,99258.59
2018-04-30T17:28:49.281Z,99255.18
2018-04-30T17:31:16.899Z,99254.95
2018-04-30T17:33:44.371Z,99256.71
2018-04-30T17:36:11.850Z,99260.19
2018-04-30T17:38:39.387Z,99261.09
2018-04-30T17:41:07.076Z,99257.86
2018-04-30T17:43:34.549Z,99261.84
2018-04-30T17:46:02.054Z,99266.12
2018-04-30T17:48:29.546Z,99265.39
2018-04-30T17:50:57.051Z,99272.80
2018-04-30T17:53:24.650Z,99269.58
2018-04-30T17:55:52.191Z,99272.41
2018-04-30T17:58:19.706Z,99268.94
2018-04-30T18:00:47.216Z,99267.38
2018-04-30T18:03:14.680Z,99275.58
2018-04-30T18:05:42.200Z,99281.37
2018-04-30T18:08:09.721Z,99271.38
2018-04-30T18:10:37.228Z,99286.27
2018-04-30T18:13:04.706Z,99286.77
2018-04-30T18:15:32.226Z,99294.00
2018-04-30T18:17:59.743Z,99294.00
2018-04-30T18:20:27.365Z,99300.96
2018-04-30T18:22:55.341Z,99309.75
2018-04-30T18:25:23.242Z,99315.39
2018-04-30T18:27:51.140Z,99319.49
2018-04-30T18:30:18.917Z,99330.87
2018-04-30T18:32:46.774Z,99336.17
2018-04-30T18:35:14.311Z,99334.95
2018-04-30T18:37:44.248Z,99341.56
2018-04-30T18:40:12.175Z,99343.43
2018-04-30T18:42:39.976Z,99343.46
2018-04-30T18:45:07.656Z,99347.97
2018-04-30T18:47:35.473Z,99355.66
2018-04-30T18:50:03.178Z,99348.98
2018-04-30T18:52:31.069Z,99357.95
2018-04-30T18:54:58.657Z,99362.24
2018-04-30T18:57:26.216Z,99356.61
2018-04-30T18:59:53.926Z,99359.52
2018-04-30T19:02:21.591Z,99360.28
2018-04-30T19:04:49.100Z,99356.95
2018-04-30T19:07:16.820Z,99369.45
2018-04-30T19:09:44.340Z,99363.56
2018-04-30T19:12:11.919Z,99357.77
2018-04-30T19:14:39.603Z,99357.91
2018-04-30T19:17:07.265Z,99362.79
2018-04-30T19:19:34.877Z,99373.03
2018-04-30T19:22:02.513Z,99364.62
2018-04-30T19:24:30.310Z,99372.98
2018-04-30T19:26:57.985Z,99367.48
2018-04-30T19:29:26.231Z,99354.10
2018-04-30T19:31:53.746Z,99357.27
2018-04-30T19:34:21.390Z,99352.63
2018-04-30T19:36:48.908Z,99336.05
2018-04-30T19:39:16.434Z,99343.86
2018-04-30T19:41:43.911Z,99338.87
2018-04-30T19:44:11.472Z,99342.23
2018-04-30T19:46:39.070Z,99344.59
2018-04-30T19:49:06.649Z,99340.47
2018-04-30T19:51:34.235Z,99346.77
2018-04-30T19:54:01.792Z,99353.17
2018-04-30T19:56:29.463Z,99361.48
2018-04-30T19:58:56.971Z,99367.89
2018-04-30T20:01:24.511Z,99365.93
2018-04-30T20:03:52.067Z,99373.59
2018-04-30T20:06:19.635Z,99372.77
2018-04-30T20:08:47.227Z,99378.28
2018-04-30T20:11:15.696Z,99365.04
2018-04-30T20:13:43.305Z,99371.58
2018-04-30T20:16:10.818Z,99375.56
2018-04-30T20:18:38.383Z,99377.75
2018-04-30T20:21:05.906Z,99376.40
2018-04-30T20:23:33.545Z,99372.66
2018-04-30T20:26:01.069Z,99371.37
2018-04-30T20:28:28.663Z,99369.56
2018-04-30T20:30:56.277Z,99356.41
2018-04-30T20:33:23.909Z,99349.39
2018-04-30T20:35:51.575Z,99340.09
2018-04-30T20:38:19.188Z,99342.73
2018-04-30T20:40:46.771Z,99343.44
2018-04-30T20:43:14.341Z,99339.34
2018-04-30T20:45:42.054Z,99342.44
2018-04-30T20:48:09.694Z,99341.48
2018-04-30T20:50:38.992Z,99338.16
2018-04-30T20:53:06.472Z,99341.81
2018-04-30T20:55:33.951Z,99335.16
2018-04-30T20:58:01.474Z,99334.69
2018-04-30T21:00:28.970Z,99342.48
2018-04-30T21:02:56.458Z,99341.68
2018-04-30T21:05:23.941Z,99343.50
2018-04-30T21:07:51.420Z,99344.12
2018-04-30T21:10:18.935Z,99339.42
2018-04-30T21:12:46.435Z,99340.11
2018-04-30T21:15:13.927Z,99335.81
2018-04-30T21:17:41.489Z,99336.19
2018-04-30T21:20:08.884Z,99330.09
2018-04-30T21:22:36.406Z,99331.85
2018-04-30T21:25:03.880Z,99331.16
2018-04-30T21:27:31.361Z,99336.82
2018-04-30T21:29:58.936Z,99339.34
2018-04-30T21:32:26.836Z,99342.95
2018-04-30T21:34:55.604Z,99342.98
2018-04-30T21:37:23.111Z,99341.80
2018-04-30T21:39:50.611Z,99345.77
2018-04-30T21:42:18.109Z,99338.91
2018-04-30T21:44:45.599Z,99340.77
2018-04-30T21:47:13.112Z,99342.44
2018-04-30T21:49:41.032Z,99342.58
2018-04-30T21:52:08.560Z,99345.27
2018-04-30T21:54:36.108Z,99346.27
2018-04-30T21:57:03.712Z,99349.33
2018-04-30T21:59:31.232Z,99353.24
2018-04-30T22:01:58.882Z,99350.91
2018-04-30T22:04:26.446Z,99354.81
2018-04-30T22:06:54.093Z,99352.33
2018-04-30T22:09:21.600Z,99359.80
2018-04-30T22:11:49.196Z,99369.14
2018-04-30T22:14:16.819Z,99368.27
2018-04-30T22:16:44.325Z,99360.20
2018-04-30T22:19:11.825Z,99350.46
2018-04-30T22:21:39.305Z,99357.84
2018-04-30T22:24:07.036Z,99356.95
2018-04-30T22:26:34.569Z,99350.48
2018-04-30T22:29:02.250Z,99347.28
2018-04-30T22:31:29.925Z,99355.55
2018-04-30T22:33:57.508Z,99352.27
2018-04-30T22:36:25.019Z,99358.87
2018-04-30T22:38:52.677Z,99355.23
2018-04-30T22:41:20.428Z,99356.60
2018-04-30T22:43:48.062Z,99359.78
2018-04-30T22:46:15.542Z,99352.31
2018-04-30T22:48:43.003Z,99356.88
2018-04-30T22:51:10.480Z,99360.78
2018-04-30T22:53:37.954Z,99356.33
2018-04-30T22:56:05.605Z,99356.23
2018-04-30T22:58:33.133Z,99364.14
2018-04-30T23:01:00.604Z,99359.36
2018-04-30T23:03:28.064Z,99364.36
2018-04-30T23:05:55.544Z,99358.05
2018-04-30T23:08:23.036Z,99359.31
2018-04-30T23:10:50.554Z,99353.88
2018-04-30T23:13:18.050Z,99355.70
2018-04-30T23:15:45.534Z,99358.76
2018-04-30T23:18:13.086Z,99360.34
2018-04-30T23:20:40.571Z,99358.98
2018-04-30T23:23:08.068Z,99352.61
2018-04-30T23:25:35.589Z,99347.58
2018-04-30T23:28:03.067Z,99346.33
2018-04-30T23:30:30.600Z,99349.52
2018-04-30T23:32:58.110Z,99348.20
2018-04-30T23:35:25.583Z,99344.20
2018-04-30T23:37:53.079Z,99354.40
2018-04-30T23:40:20.584Z,99338.27
2018-04-30T23:42:48.102Z,99338.80
2018-04-30T23:45:15.596Z,99345.28
2018-04-30T23:47:43.073Z,99336.19
2018-04-30T23:50:10.567Z,99339.78
2018-04-30T23:52:38.041Z,99338.47
2018-04-30T23:55:05.532Z,99330.36
2018-04-30T23:57:33.036Z,99329.07
